createdAt,value
2023-01-18T00:03:33.407Z,95038.94
2023-01-18T00:08:38.360Z,95030.22
2023-01-18T00:13:40.515Z,95028.16
2023-01-18T00:18:42.802Z,95024.81
2023-01-18T00:23:44.413Z,95015.88
2023-01-18T00:28:46.430Z,95023.19
2023-01-18T00:33:50.460Z,95016.03
2023-01-18T00:38:53.890Z,95023.66
2023-01-18T00:43:55.924Z,95027.00
2023-01-18T00:48:58.972Z,95025.09
2023-01-18T00:54:00.625Z,95034.81
2023-01-18T00:59:02.302Z,95033.69
2023-01-18T01:04:22.517Z,95032.41
2023-01-18T01:09:26.618Z,95029.31
2023-01-18T01:14:46.740Z,95025.59
2023-01-18T01:20:07.044Z,95028.53
2023-01-18T01:25:27.169Z,95043.47
2023-01-18T01:30:28.883Z,95041.00
2023-01-18T01:35:30.655Z,95043.16
2023-01-18T01:40:32.397Z,95037.41
2023-01-18T01:45:34.116Z,95027.94
2023-01-18T01:50:39.578Z,95025.63
2023-01-18T01:55:42.495Z,95022.06
2023-01-18T02:00:44.652Z,95028.06
2023-01-18T02:05:50.886Z,95022.78
2023-01-18T02:10:52.887Z,95021.28
2023-01-18T02:16:06.661Z,95022.13
2023-01-18T02:21:21.236Z,95015.34
2023-01-18T02:26:49.208Z,95026.38
2023-01-18T02:31:56.913Z,95027.81
2023-01-18T02:37:12.893Z,95032.88
2023-01-18T02:42:37.914Z,95026.75
2023-01-18T02:47:42.115Z,95026.84
2023-01-18T02:52:47.268Z,95025.91
2023-01-18T02:57:48.986Z,95028.97
2023-01-18T03:02:53.159Z,95013.16
2023-01-18T03:08:06.287Z,95014.50
2023-01-18T03:13:25.595Z,95011.63
2023-01-18T03:19:01.897Z,95021.78
2023-01-18T03:24:07.254Z,95022.16
2023-01-18T03:29:29.529Z,95023.00
2023-01-18T03:35:08.062Z,95024.56
2023-01-18T03:40:22.024Z,95018.44
2023-01-18T03:45:39.551Z,95015.84
2023-01-18T03:51:00.855Z,95010.91
2023-01-18T03:56:09.307Z,95010.22
2023-01-18T04:01:11.796Z,95017.69
2023-01-18T04:06:13.472Z,95019.56
2023-01-18T04:11:15.423Z,95024.22
2023-01-18T04:16:17.156Z,95033.91
2023-01-18T04:21:18.772Z,95037.59
2023-01-18T04:26:20.384Z,95039.03
2023-01-18T04:31:22.300Z,95044.13
2023-01-18T04:36:23.930Z,95052.25
2023-01-18T04:41:25.688Z,95050.38
2023-01-18T04:46:27.380Z,95050.22
2023-01-18T04:51:31.298Z,95045.97
2023-01-18T04:56:32.936Z,95043.66
2023-01-18T05:01:35.741Z,95048.41
2023-01-18T05:06:37.399Z,95048.56
2023-01-18T05:11:38.991Z,95047.16
2023-01-18T05:16:40.733Z,95052.91
2023-01-18T05:21:42.438Z,95047.91
2023-01-18T05:26:44.696Z,95048.97
2023-01-18T05:31:46.370Z,95061.44
2023-01-18T05:36:48.592Z,95071.66
2023-01-18T05:41:50.684Z,95079.19
2023-01-18T05:46:52.416Z,95079.72
2023-01-18T05:51:54.294Z,95083.66
2023-01-18T05:56:56.398Z,95084.97
2023-01-18T06:01:58.058Z,95090.97
2023-01-18T06:06:59.793Z,95092.25
2023-01-18T06:12:01.651Z,95091.78
2023-01-18T06:17:03.540Z,95087.69
2023-01-18T06:22:05.149Z,95093.88
2023-01-18T06:27:07.383Z,95091.41
2023-01-18T06:32:09.064Z,95093.53
2023-01-18T06:37:10.663Z,95096.41
2023-01-18T06:42:12.263Z,95106.16
2023-01-18T06:47:18.781Z,95106.09
2023-01-18T06:52:20.394Z,95118.41
2023-01-18T06:57:22.059Z,95135.13
2023-01-18T07:02:23.657Z,95132.13
2023-01-18T07:07:25.405Z,95136.75
2023-01-18T07:12:27.131Z,95140.28
2023-01-18T07:17:28.750Z,95157.00
2023-01-18T07:22:30.365Z,95155.41
2023-01-18T07:27:31.980Z,95168.91
2023-01-18T07:32:33.598Z,95172.53
2023-01-18T07:37:36.015Z,95171.88
2023-01-18T07:42:37.593Z,95174.47
2023-01-18T07:47:40.361Z,95167.13
2023-01-18T07:52:42.130Z,95185.72
2023-01-18T07:57:43.999Z,95195.03
2023-01-18T08:02:50.618Z,95203.63
2023-01-18T08:07:53.671Z,95204.00
2023-01-18T08:12:55.305Z,95223.31
2023-01-18T08:17:57.109Z,95222.16
2023-01-18T08:23:00.175Z,95224.16
2023-01-18T08:28:03.043Z,95233.84
2023-01-18T08:33:05.349Z,95238.09
2023-01-18T08:38:06.965Z,95239.66
2023-01-18T08:43:10.950Z,95247.00
2023-01-18T08:48:12.617Z,95251.38
2023-01-18T08:53:14.284Z,95263.25
2023-01-18T08:58:15.893Z,95269.06
2023-01-18T09:03:22.128Z,95284.06
2023-01-18T09:08:23.791Z,95282.88
2023-01-18T09:13:25.410Z,95290.94
2023-01-18T09:18:27.112Z,95291.88
2023-01-18T09:23:28.707Z,95291.59
2023-01-18T09:28:30.839Z,95298.19
2023-01-18T09:33:37.662Z,95309.09
2023-01-18T09:38:41.376Z,95318.19
2023-01-18T09:43:50.118Z,95309.50
2023-01-18T09:48:59.325Z,95314.19
2023-01-18T09:54:23.197Z,95321.94
2023-01-18T09:59:34.947Z,95319.72
2023-01-18T10:04:41.599Z,95322.91
2023-01-18T10:09:49.571Z,95327.59
2023-01-18T10:15:04.266Z,95330.56
2023-01-18T10:20:43.743Z,95345.41
2023-01-18T10:25:55.266Z,95344.53
2023-01-18T10:31:24.965Z,95338.56
2023-01-18T10:36:33.311Z,95346.84
2023-01-18T10:41:38.453Z,95353.19
2023-01-18T10:46:40.051Z,95356.75
2023-01-18T10:51:41.713Z,95372.00
2023-01-18T10:56:44.570Z,95372.53
2023-01-18T11:01:57.815Z,95374.53
2023-01-18T11:07:04.881Z,95375.34
2023-01-18T11:12:34.912Z,95377.78
2023-01-18T11:17:36.946Z,95384.00
2023-01-18T11:22:55.884Z,95386.22
2023-01-18T11:28:02.874Z,95395.13
2023-01-18T11:33:04.565Z,95400.28
2023-01-18T11:38:07.313Z,95406.59
2023-01-18T11:43:25.313Z,95409.25
2023-01-18T11:49:16.308Z,95417.47
2023-01-18T11:54:28.336Z,95421.88
2023-01-18T11:59:37.750Z,95430.28
2023-01-18T12:05:13.045Z,95437.25
2023-01-18T12:10:23.647Z,95443.09
2023-01-18T12:15:57.351Z,95452.38
2023-01-18T12:21:12.163Z,95459.53
2023-01-18T12:26:49.436Z,95462.25
2023-01-18T12:32:14.712Z,95475.00
2023-01-18T12:38:07.436Z,95472.34
2023-01-18T12:43:24.093Z,95483.13
2023-01-18T12:48:31.479Z,95493.59
2023-01-18T12:53:45.964Z,95501.59
2023-01-18T12:58:58.200Z,95501.75
2023-01-18T13:04:08.510Z,95510.13
2023-01-18T13:09:16.159Z,95516.81
2023-01-18T13:14:28.379Z,95519.41
2023-01-18T13:19:42.913Z,95528.16
2023-01-18T13:25:24.881Z,95545.25
2023-01-18T13:30:28.827Z,95551.28
2023-01-18T13:35:33.488Z,95564.97
2023-01-18T13:41:10.554Z,95567.69
2023-01-18T13:46:15.182Z,95576.50
2023-01-18T13:51:36.759Z,95590.22
2023-01-18T13:56:39.676Z,95595.94
2023-01-18T14:01:44.603Z,95612.34
2023-01-18T14:06:47.016Z,95617.31
2023-01-18T14:11:55.476Z,95627.41
2023-01-18T14:17:12.224Z,95638.91
2023-01-18T14:22:22.723Z,95647.69
2023-01-18T14:27:28.402Z,95649.56
2023-01-18T14:32:42.815Z,95660.94
2023-01-18T14:37:44.478Z,95666.84
2023-01-18T14:43:11.754Z,95686.81
2023-01-18T14:48:19.326Z,95700.38
2023-01-18T14:53:34.443Z,95708.84
2023-01-18T14:58:50.837Z,95721.97
2023-01-18T15:03:55.196Z,95733.00
2023-01-18T15:08:57.040Z,95744.34
2023-01-18T15:13:59.017Z,95755.84
2023-01-18T15:19:01.898Z,95764.50
2023-01-18T15:24:16.094Z,95767.84
2023-01-18T15:29:26.600Z,95775.19
2023-01-18T15:34:31.579Z,95797.91
2023-01-18T15:39:33.667Z,95811.78
2023-01-18T15:44:35.277Z,95812.25
2023-01-18T15:49:36.932Z,95823.59
2023-01-18T15:54:38.597Z,95838.31
2023-01-18T15:59:41.903Z,95838.44
2023-01-18T16:04:43.626Z,95848.69
2023-01-18T16:09:45.413Z,95861.16
2023-01-18T16:14:52.852Z,95864.34
2023-01-18T16:19:57.712Z,95875.72
2023-01-18T16:25:09.320Z,95884.66
2023-01-18T16:30:21.437Z,95896.28
2023-01-18T16:35:23.987Z,95905.38
2023-01-18T16:40:25.687Z,95922.66
2023-01-18T16:45:33.491Z,95933.34
2023-01-18T16:50:35.192Z,95946.13
2023-01-18T16:55:37.692Z,95950.91
2023-01-18T17:00:45.511Z,95961.91
2023-01-18T17:05:47.591Z,95965.75
2023-01-18T17:10:51.267Z,95985.75
2023-01-18T17:15:53.378Z,95996.72
2023-01-18T17:20:55.589Z,95993.84
2023-01-18T17:25:58.725Z,96003.66
2023-01-18T17:31:00.768Z,96013.38
2023-01-18T17:41:22.890Z,96037.94
2023-01-18T17:46:28.894Z,96053.78
2023-01-18T17:51:30.576Z,96058.22
2023-01-18T17:56:33.027Z,96071.84
2023-01-18T18:01:34.778Z,96086.72
2023-01-18T18:06:40.203Z,96089.75
2023-01-18T18:11:44.890Z,96095.47
2023-01-18T18:16:46.566Z,96108.16
2023-01-18T18:21:48.323Z,96116.94
2023-01-18T18:26:50.741Z,96119.66
2023-01-18T18:31:52.693Z,96131.03
2023-01-18T18:36:54.341Z,96129.34
2023-01-18T18:41:56.112Z,96142.97
2023-01-18T18:46:57.801Z,96149.59
2023-01-18T18:52:00.254Z,96163.31
2023-01-18T18:57:03.374Z,96182.94
2023-01-18T19:02:05.458Z,96188.22
2023-01-18T19:07:07.162Z,96192.59
2023-01-18T19:12:09.024Z,96196.25
2023-01-18T19:17:15.796Z,96206.47
2023-01-18T19:22:23.523Z,96205.94
2023-01-18T19:27:25.190Z,96201.38
2023-01-18T19:32:26.830Z,96208.88
2023-01-18T19:37:28.433Z,96221.53
2023-01-18T19:42:30.065Z,96225.91
2023-01-18T19:47:31.917Z,96224.31
2023-01-18T19:52:33.655Z,96248.16
2023-01-18T19:57:35.550Z,96250.94
2023-01-18T20:02:41.517Z,96261.69
2023-01-18T20:07:43.425Z,96261.16
2023-01-18T20:12:45.122Z,96264.22
2023-01-18T20:17:46.788Z,96277.81
2023-01-18T20:22:49.080Z,96284.78
2023-01-18T20:27:50.769Z,96277.84
2023-01-18T20:32:52.446Z,96294.34
2023-01-18T20:37:54.456Z,96308.00
2023-01-18T20:42:56.065Z,96306.91
2023-01-18T20:47:58.256Z,96320.22
2023-01-18T20:53:00.291Z,96321.56
2023-01-18T20:58:02.177Z,96324.75
2023-01-18T21:03:04.560Z,96330.38
2023-01-18T21:08:06.397Z,96326.50
2023-01-18T21:13:09.412Z,96326.31
2023-01-18T21:18:11.364Z,96328.31
2023-01-18T21:23:13.047Z,96337.84
2023-01-18T21:28:14.642Z,96337.59
2023-01-18T21:33:16.251Z,96344.97
2023-01-18T21:38:17.891Z,96341.22
2023-01-18T21:43:39.656Z,96345.88
2023-01-18T21:48:41.272Z,96359.25
2023-01-18T21:54:01.504Z,96356.84
2023-01-18T21:59:03.193Z,96360.94
2023-01-18T22:04:29.200Z,96362.34
2023-01-18T22:09:31.480Z,96381.75
2023-01-18T22:14:33.113Z,96380.09
2023-01-18T22:19:34.718Z,96381.28
2023-01-18T22:24:36.481Z,96383.13
2023-01-18T22:29:38.174Z,96382.00
2023-01-18T22:34:39.840Z,96385.84
2023-01-18T22:39:41.448Z,96397.16
2023-01-18T22:44:43.026Z,96414.19
2023-01-18T22:49:44.711Z,96420.84
2023-01-18T22:54:46.750Z,96416.53
2023-01-18T22:59:48.544Z,96414.00
2023-01-18T23:04:50.170Z,96407.06
2023-01-18T23:09:52.160Z,96419.34
2023-01-18T23:15:12.619Z,96416.09
2023-01-18T23:20:14.955Z,96425.06
2023-01-18T23:25:16.771Z,96428.00
2023-01-18T23:30:18.903Z,96429.03
2023-01-18T23:35:20.516Z,96432.31
2023-01-18T23:40:40.765Z,96438.16
2023-01-18T23:46:02.469Z,96450.03
2023-01-18T23:51:23.197Z,96465.09
2023-01-18T23:56:25.158Z,96476.28
